Time;durP1;ratioP1;P1;durP2;ratioP2;P2;SDS_P1;SDS_P2;PMS_P1;PMS_P2;Temp;Humidity;BMP_temperature;BMP_pressure;BME280_temperature;BME280_humidity;BME280_pressure;Samples;Min_cycle;Max_cycle;Signal;HPM_P1;HPM_P2
2023/09/06 00:01:05;;;;;;;0.00;0.00;;;;;;;21.02;100.00;101752.75;5072280;28;20510;-46
2023/09/06 00:03:30;;;;;;;0.00;0.00;;;;;;;21.00;100.00;101754.88;5072445;28;20805;-47
2023/09/06 00:05:58;;;;;;;0.00;0.00;;;;;;;21.02;100.00;101763.69;5071409;28;20033;-48
2023/09/06 00:08:23;;;;;;;;;;;;;;;21.08;100.00;101770.13;5072051;28;20056;-47
2023/09/06 00:10:49;;;;;;;0.00;0.00;;;;;;;21.08;100.00;101770.13;5071786;28;19978;-46
2023/09/06 00:13:14;;;;;;;0.00;0.00;;;;;;;21.12;100.00;101772.19;5071484;28;20036;-47
2023/09/06 00:15:40;;;;;;;0.00;0.00;;;;;;;21.09;100.00;101769.94;5071504;28;20033;-47
2023/09/06 00:18:06;;;;;;;0.00;0.00;;;;;;;21.07;100.00;101769.31;5071633;28;20037;-47
2023/09/06 00:20:34;;;;;;;0.00;0.00;;;;;;;21.07;100.00;101769.31;5073489;28;20077;-46
2023/09/06 00:23:01;;;;;;;0.00;0.00;;;;;;;21.08;100.00;101770.13;5070822;28;20418;-47
2023/09/06 00:25:28;;;;;;;0.00;0.00;;;;;;;21.05;100.00;101761.31;5070501;28;20032;-46
2023/09/06 00:27:54;;;;;;;0.00;0.00;;;;;;;21.03;100.00;101765.34;5066274;28;20035;-49
2023/09/06 00:30:20;;;;;;;0.00;0.00;;;;;;;21.01;100.00;101760.13;5070485;28;20162;-49
2023/09/06 00:32:46;;;;;;;0.00;0.00;;;;;;;21.00;100.00;101763.06;5052204;28;20461;-47
2023/09/06 00:35:12;;;;;;;0.00;0.00;;;;;;;21.00;100.00;101763.06;5070386;28;20533;-50
2023/09/06 00:37:39;;;;;;;0.00;0.00;;;;;;;20.97;100.00;101766.28;5071231;28;20028;-51
2023/09/06 00:40:18;;;;;;;0.00;0.00;;;;;;;20.93;100.00;101762.31;5070454;28;20137;-46
2023/09/06 00:43:00;;;;;;;0.00;0.00;;;;;;;20.87;100.00;101769.53;5070511;28;20593;-47
2023/09/06 00:45:28;;;;;;;0.00;0.00;;;;;;;20.81;100.00;101770.47;5070538;28;20234;-48
2023/09/06 00:47:55;;;;;;;0.00;0.00;;;;;;;20.74;100.00;101767.78;5071878;28;20490;-45
2023/09/06 00:50:21;;;;;;;0.00;0.00;;;;;;;20.66;100.00;101764.50;5071701;28;20028;-47
2023/09/06 00:52:47;;;;;;;0.00;0.00;;;;;;;20.57;100.00;101767.56;5074822;28;20078;-47
2023/09/06 00:55:13;;;;;;;0.00;0.00;;;;;;;20.54;100.00;101778.13;5073354;28;20123;-48
2023/09/06 00:57:40;;;;;;;0.00;0.00;;;;;;;20.48;100.00;101781.69;5075166;28;20446;-46
2023/09/06 01:00:08;;;;;;;0.00;0.00;;;;;;;20.44;100.00;101778.59;5085935;28;20029;-49
2023/09/06 01:02:33;;;;;;;0.00;0.00;;;;;;;20.43;100.00;101784.28;5070245;28;20044;-48
2023/09/06 01:04:59;;;;;;;0.00;0.00;;;;;;;20.42;100.00;101782.59;5068402;28;20035;-50
2023/09/06 01:07:28;;;;;;;0.00;0.00;;;;;;;20.41;100.00;101786.41;5071466;28;20407;-46
2023/09/06 01:09:53;;;;;;;0.00;0.00;;;;;;;20.41;100.00;101786.41;5071353;28;20531;-49
2023/09/06 01:12:19;;;;;;;0.00;0.00;;;;;;;20.42;100.00;101779.88;5074315;28;20040;-47
2023/09/06 01:14:44;;;;;;;0.00;0.00;;;;;;;20.39;100.00;101776.53;5070889;28;20127;-49
2023/09/06 01:17:10;;;;;;;0.00;0.00;;;;;;;20.36;100.00;101778.88;5070349;28;20036;-47
2023/09/06 01:19:40;;;;;;;0.00;0.00;;;;;;;20.35;100.00;101779.91;5070564;28;20033;-45
2023/09/06 01:22:26;;;;;;;0.00;0.00;;;;;;;20.29;100.00;101781.66;5070833;28;20032;-48
2023/09/06 01:24:51;;;;;;;0.00;0.00;;;;;;;20.24;100.00;101778.75;5070357;28;20029;-45
2023/09/06 01:27:17;;;;;;;0.00;0.00;;;;;;;20.24;100.00;101777.91;5052682;28;20035;-49
2023/09/06 01:29:42;;;;;;;0.00;0.00;;;;;;;20.23;100.00;101779.81;5072965;28;20485;-46
2023/09/06 01:32:08;;;;;;;0.00;0.00;;;;;;;20.20;100.00;101780.28;5072609;28;20031;-49
2023/09/06 01:34:33;;;;;;;0.00;0.00;;;;;;;20.16;100.00;101779.03;5070173;28;20199;-48
2023/09/06 01:36:58;;;;;;;0.00;0.00;;;;;;;20.13;100.00;101784.94;5071596;28;20032;-46
2023/09/06 01:39:24;;;;;;;0.00;0.00;;;;;;;20.10;100.00;101782.66;5070771;28;20115;-52
2023/09/06 01:41:49;;;;;;;0.00;0.00;;;;;;;20.10;100.00;101786.22;5069509;28;20036;-50
2023/09/06 01:44:14;;;;;;;0.00;0.00;;;;;;;20.07;100.00;101781.22;5070789;28;20024;-50
2023/09/06 01:46:41;;;;;;;0.00;0.00;;;;;;;20.05;100.00;101782.50;5069496;28;20017;-46
2023/09/06 01:49:08;;;;;;;0.00;0.00;;;;;;;20.03;100.00;101779.97;5075738;28;20043;-46
2023/09/06 01:51:33;;;;;;;0.00;0.00;;;;;;;19.99;100.00;101776.03;5073579;28;20467;-47
2023/09/06 01:54:01;;;;;;;0.00;0.00;;;;;;;19.94;100.00;101781.31;5069860;28;20043;-50
2023/09/06 01:56:26;;;;;;;0.00;0.00;;;;;;;19.85;100.00;101777.16;5076051;28;20028;-48
2023/09/06 01:58:53;;;;;;;0.00;0.00;;;;;;;19.82;100.00;101789.38;5069941;28;20028;-48
2023/09/06 02:01:19;;;;;;;0.00;0.00;;;;;;;19.81;100.00;101797.81;5060737;28;20025;-48
2023/09/06 02:03:44;;;;;;;0.00;0.00;;;;;;;19.80;100.00;101793.38;5077827;28;20044;-49
2023/09/06 02:06:10;;;;;;;0.00;0.00;;;;;;;19.77;100.00;101786.47;5070492;28;20028;-48
2023/09/06 02:08:35;;;;;;;0.00;0.00;;;;;;;19.79;100.00;101795.28;5073004;28;20040;-47
2023/09/06 02:11:00;;;;;;;0.00;0.00;;;;;;;19.78;100.00;101787.31;5069112;28;20032;-50
2023/09/06 02:13:26;;;;;;;0.00;0.00;;;;;;;19.74;100.00;101790.47;5078875;28;20042;-46
2023/09/06 02:15:51;;;;;;;0.00;0.00;;;;;;;19.75;100.00;101805.00;5089470;28;20571;-50
2023/09/06 02:18:17;;;;;;;0.00;0.00;;;;;;;19.74;100.00;101804.13;5072594;28;20028;-49
2023/09/06 02:20:43;;;;;;;0.00;0.00;;;;;;;19.71;100.00;101796.38;5076510;28;20021;-47
2023/09/06 02:23:09;;;;;;;0.00;0.00;;;;;;;19.67;100.00;101797.06;5083805;28;20119;-50
2023/09/06 02:25:34;;;;;;;0.00;0.00;;;;;;;19.65;100.00;101794.50;5085292;28;20104;-47
2023/09/06 02:28:05;;;;;;;0.00;0.00;;;;;;;19.63;100.00;101803.97;5071141;28;20028;-51
2023/09/06 02:30:37;;;;;;;0.00;0.00;;;;;;;19.61;100.00;101804.19;5068533;28;20491;-46
2023/09/06 02:33:04;;;;;;;0.00;0.00;;;;;;;19.61;100.00;101797.88;5069179;28;20036;-47
2023/09/06 02:35:29;;;;;;;0.00;0.00;;;;;;;19.58;100.00;101804.63;5069385;28;20467;-49
2023/09/06 02:37:55;;;;;;;0.00;0.00;;;;;;;19.57;100.00;101802.13;5069704;28;20036;-50
2023/09/06 02:40:20;;;;;;;0.00;0.00;;;;;;;19.53;100.00;101799.81;5083052;28;20033;-49
2023/09/06 02:42:51;;;;;;;0.00;0.00;;;;;;;19.51;100.00;101799.22;5070174;28;20395;-49
2023/09/06 02:45:17;;;;;;;0.00;0.00;;;;;;;19.51;100.00;101807.41;5069438;28;20081;-48
2023/09/06 02:47:50;;;;;;;0.00;0.00;;;;;;;19.48;100.00;101804.25;5050972;28;20033;-52
2023/09/06 02:50:23;;;;;;;0.00;0.00;;;;;;;19.48;100.00;101802.38;5071302;28;20029;-48
2023/09/06 02:52:50;;;;;;;0.00;0.00;;;;;;;19.45;100.00;101800.06;5084510;28;20028;-45
2023/09/06 02:55:16;;;;;;;0.00;0.00;;;;;;;19.45;100.00;101804.69;5055206;28;20068;-47
2023/09/06 02:57:42;;;;;;;0.00;0.00;;;;;;;19.44;100.00;101803.03;5072513;28;20079;-44
2023/09/06 03:00:29;;;;;;;0.00;0.00;;;;;;;19.43;100.00;101806.78;5076777;28;20044;-48
2023/09/06 03:03:05;;;;;;;0.00;0.00;;;;;;;19.42;100.00;101805.13;5071324;28;20056;-46
2023/09/06 03:05:30;;;;;;;0.00;0.00;;;;;;;19.41;100.00;101804.28;5073281;28;20031;-48
2023/09/06 03:07:56;;;;;;;0.00;0.00;;;;;;;19.36;100.00;101806.84;5074008;28;20028;-47
2023/09/06 03:10:23;;;;;;;0.00;0.00;;;;;;;19.33;100.00;101806.44;5072735;28;20082;-49
2023/09/06 03:12:57;;;;;;;0.00;0.00;;;;;;;19.29;100.00;101806.84;5072370;28;20023;-50
2023/09/06 03:15:27;;;;;;;0.00;0.00;;;;;;;19.28;100.00;101804.34;5073618;28;20036;-46
2023/09/06 03:17:53;;;;;;;0.00;0.00;;;;;;;19.27;100.00;101800.78;5074148;28;20101;-49
2023/09/06 03:20:42;;;;;;;0.00;0.00;;;;;;;19.25;100.00;101810.25;5072760;28;20040;-46
2023/09/06 03:23:18;;;;;;;0.00;0.00;;;;;;;19.21;100.00;101807.09;5072731;28;20489;-45
2023/09/06 03:25:57;;;;;;;0.00;0.00;;;;;;;19.16;100.00;101809.63;5073728;28;20031;-47
2023/09/06 03:28:25;;;;;;;0.00;0.00;;;;;;;19.08;100.00;101807.97;5073552;28;20029;-49
2023/09/06 03:30:51;;;;;;;0.00;0.00;;;;;;;19.04;100.00;101814.94;5075382;28;20414;-47
2023/09/06 03:33:17;;;;;;;0.00;0.00;;;;;;;19.00;100.00;101813.66;5081765;28;20518;-48
2023/09/06 03:35:48;;;;;;;0.00;0.00;;;;;;;19.01;100.00;101825.41;5077837;28;20074;-47
2023/09/06 03:38:17;;;;;;;0.00;0.00;;;;;;;19.02;100.00;101827.13;5053731;28;20478;-48
2023/09/06 03:40:43;;;;;;;0.00;0.00;;;;;;;19.03;100.00;101824.16;5072794;28;20640;-46
2023/09/06 03:43:15;;;;;;;0.00;0.00;;;;;;;19.05;100.00;101832.13;5052064;28;20101;-49
2023/09/06 03:45:53;;;;;;;0.00;0.00;;;;;;;19.06;100.00;101822.88;5072488;28;20110;-46
2023/09/06 03:48:20;;;;;;;;;;;;;;;19.04;100.00;101831.31;5069524;28;20386;-47
2023/09/06 03:50:47;;;;;;;0.00;0.00;;;;;;;19.00;100.00;101830.03;5070023;28;20014;-49
2023/09/06 03:53:14;;;;;;;0.00;0.00;;;;;;;19.00;100.00;101823.75;5056413;28;20036;-46
2023/09/06 03:55:41;;;;;;;0.00;0.00;;;;;;;18.97;100.00;101830.47;5070272;28;20063;-49
2023/09/06 03:58:07;;;;;;;0.00;0.00;;;;;;;18.93;100.00;101833.84;5069842;28;20522;-49
2023/09/06 04:00:39;;;;;;;0.00;0.00;;;;;;;18.90;100.00;101840.56;5062682;28;20056;-48
2023/09/06 04:03:07;;;;;;;0.00;0.00;;;;;;;18.88;100.00;101834.50;5054676;28;20049;-45
2023/09/06 04:05:33;;;;;;;0.00;0.00;;;;;;;18.86;100.00;101839.31;5072018;28;20032;-47
2023/09/06 04:07:59;;;;;;;0.00;0.00;;;;;;;18.85;100.00;101843.94;5068744;28;20044;-50
2023/09/06 04:10:27;;;;;;;0.00;0.00;;;;;;;18.87;100.00;101835.53;5068564;28;20036;-50
2023/09/06 04:12:55;;;;;;;0.00;0.00;;;;;;;18.87;100.00;101832.81;5082294;28;20024;-48
2023/09/06 04:15:21;;;;;;;0.00;0.00;;;;;;;18.85;100.00;101824.84;5075656;28;20043;-48
2023/09/06 04:17:50;;;;;;;0.00;0.00;;;;;;;18.86;100.00;101833.88;5054526;28;20029;-45
2023/09/06 04:20:19;;;;;;;0.00;0.00;;;;;;;18.85;100.00;101837.63;5068009;28;20060;-50
2023/09/06 04:22:45;;;;;;;0.00;0.00;;;;;;;18.82;100.00;101832.59;5069090;28;20048;-47
2023/09/06 04:25:11;;;;;;;0.00;0.00;;;;;;;18.81;100.00;101830.94;5068843;28;20028;-48
2023/09/06 04:27:39;;;;;;;0.00;0.00;;;;;;;18.78;100.00;101831.38;5069313;28;20052;-47
2023/09/06 04:30:06;;;;;;;0.00;0.00;;;;;;;18.75;100.00;101838.06;5070616;28;20079;-46
2023/09/06 04:32:31;;;;;;;0.00;0.00;;;;;;;18.74;100.00;101830.06;5068906;28;20032;-48
2023/09/06 04:34:58;;;;;;;0.00;0.00;;;;;;;18.75;100.00;101838.06;5069081;28;20093;-48
2023/09/06 04:37:24;;;;;;;0.00;0.00;;;;;;;18.74;100.00;101838.25;5068702;28;20040;-47
2023/09/06 04:39:49;;;;;;;0.00;0.00;;;;;;;18.74;100.00;101841.81;5068047;28;20062;-47
2023/09/06 04:42:15;;;;;;;0.05;0.00;;;;;;;18.71;100.00;101841.41;5068032;28;20067;-49
2023/09/06 04:44:40;;;;;;;0.00;0.00;;;;;;;18.72;100.00;101841.19;5067190;28;20529;-49
2023/09/06 04:47:05;;;;;;;0.00;0.00;;;;;;;18.70;100.00;101840.56;5033990;28;20151;-51
2023/09/06 04:49:31;;;;;;;0.00;0.00;;;;;;;18.69;100.00;101848.94;5067279;28;20082;-50
2023/09/06 04:51:56;;;;;;;0.00;0.00;;;;;;;18.70;100.00;101853.38;5068928;28;20028;-48
2023/09/06 04:54:21;;;;;;;0.00;0.00;;;;;;;18.70;100.00;101850.66;5068342;28;20394;-50
2023/09/06 04:56:47;;;;;;;0.20;0.00;;;;;;;18.69;100.00;101851.69;5070800;28;20021;-48
2023/09/06 04:59:12;;;;;;;0.00;0.00;;;;;;;18.68;100.00;101847.28;5070063;28;20111;-47
2023/09/06 05:01:38;;;;;;;0.00;0.00;;;;;;;18.67;100.00;101848.31;5070768;28;20130;-45
2023/09/06 05:04:03;;;;;;;0.00;0.00;;;;;;;18.62;100.00;101844.34;5069614;28;20044;-45
2023/09/06 05:06:28;;;;;;;0.00;0.00;;;;;;;18.63;100.00;101846.00;5056056;28;20133;-50
2023/09/06 05:08:54;;;;;;;0.00;0.00;;;;;;;18.61;100.00;101850.00;5074684;28;20089;-47
2023/09/06 05:11:19;;;;;;;0.00;0.00;;;;;;;18.61;100.00;101853.56;5071482;28;20025;-50
2023/09/06 05:13:45;;;;;;;0.00;0.00;;;;;;;18.62;100.00;101855.25;5069928;28;20123;-47
2023/09/06 05:16:10;;;;;;;0.00;0.00;;;;;;;18.60;100.00;101857.34;5070456;28;20112;-46
2023/09/06 05:18:35;;;;;;;0.00;0.00;;;;;;;18.61;100.00;101856.28;5065137;28;20082;-47
2023/09/06 05:21:03;;;;;;;0.00;0.00;;;;;;;18.65;100.00;101865.75;5067865;28;20035;-47
2023/09/06 05:23:28;;;;;;;0.00;0.00;;;;;;;18.68;100.00;101860.91;5069134;28;20474;-48
2023/09/06 05:25:54;;;;;;;0.00;0.00;;;;;;;18.67;100.00;101859.22;5070257;28;20032;-49
2023/09/06 05:28:19;;;;;;;0.00;0.00;;;;;;;18.69;100.00;101866.16;5090842;28;20051;-46
2023/09/06 05:30:45;;;;;;;0.00;0.00;;;;;;;18.73;100.00;101872.03;5079246;28;20139;-52
2023/09/06 05:33:13;;;;;;;0.00;0.00;;;;;;;18.76;100.00;101877.09;5070628;28;20032;-44
2023/09/06 05:35:40;;;;;;;0.00;0.00;;;;;;;18.90;100.00;101873.28;5070333;28;20033;-45
2023/09/06 05:38:05;;;;;;;0.00;0.00;;;;;;;19.35;100.00;101880.75;5069550;28;20483;-47
2023/09/06 05:40:33;;;;;;;0.00;0.00;;;;;;;19.97;100.00;101872.94;5070212;28;20030;-47
2023/09/06 05:42:58;;;;;;;0.00;0.00;;;;;;;20.70;100.00;101870.53;5074150;28;20035;-46
2023/09/06 05:45:24;;;;;;;0.00;0.00;;;;;;;21.39;100.00;101865.00;5081877;28;20470;-45
2023/09/06 05:47:50;;;;;;;0.00;0.00;;;;;;;22.07;100.00;101851.00;5070567;28;20036;-46
2023/09/06 05:50:15;;;;;;;0.03;0.00;;;;;;;22.71;100.00;101840.25;5064468;28;20541;-50
2023/09/06 05:52:41;;;;;;;0.00;0.00;;;;;;;23.30;100.00;101831.13;5069290;28;20033;-49
2023/09/06 05:55:07;;;;;;;0.00;0.00;;;;;;;23.91;100.00;101837.84;5069367;28;20107;-50
2023/09/06 05:57:32;;;;;;;0.00;0.00;;;;;;;24.37;100.00;101838.63;5085054;28;20032;-47
2023/09/06 05:59:58;;;;;;;0.00;0.00;;;;;;;24.93;100.00;101835.94;5090301;28;20453;-49
2023/09/06 06:02:24;;;;;;;0.00;0.00;;;;;;;25.16;100.00;101832.97;5079140;28;20459;-45
2023/09/06 06:04:49;;;;;;;0.00;0.00;;;;;;;25.60;100.00;101832.94;5052304;28;20040;-47
2023/09/06 06:07:16;;;;;;;0.00;0.00;;;;;;;25.75;100.00;101842.47;5064792;28;20395;-49
2023/09/06 06:09:42;;;;;;;0.00;0.00;;;;;;;25.39;100.00;101839.31;5064363;28;20032;-48
2023/09/06 06:12:08;;;;;;;0.00;0.00;;;;;;;24.75;100.00;101832.41;5062640;28;20039;-48
2023/09/06 06:14:33;;;;;;;0.00;0.00;;;;;;;24.06;100.00;101835.34;5069327;28;20033;-48
2023/09/06 06:16:58;;;;;;;0.00;0.00;;;;;;;23.37;100.00;101843.63;5068419;28;20024;-48
2023/09/06 06:19:24;;;;;;;0.00;0.00;;;;;;;22.89;100.00;101842.03;5067777;28;20449;-47
2023/09/06 06:21:50;;;;;;;0.00;0.00;;;;;;;22.42;100.00;101842.03;5069780;28;20068;-51
2023/09/06 06:24:15;;;;;;;0.00;0.00;;;;;;;22.06;100.00;101843.81;5069216;28;20348;-47
2023/09/06 06:26:41;;;;;;;0.00;0.00;;;;;;;21.87;100.00;101844.97;5073743;28;20046;-47
2023/09/06 06:29:06;;;;;;;0.00;0.00;;;;;;;21.67;100.00;101857.03;5076100;28;20051;-49
2023/09/06 06:31:31;;;;;;;0.00;0.00;;;;;;;21.56;100.00;101868.75;5072958;28;20027;-50
2023/09/06 06:33:59;;;;;;;0.00;0.00;;;;;;;21.56;100.00;101870.66;5075676;28;20135;-47
2023/09/06 06:36:25;;;;;;;0.00;0.00;;;;;;;21.56;100.00;101860.53;5049451;28;20033;-48
2023/09/06 06:38:51;;;;;;;0.00;0.00;;;;;;;21.58;100.00;101863.91;5055390;28;20102;-50
2023/09/06 06:41:22;;;;;;;0.00;0.00;;;;;;;21.46;100.00;101871.22;5067802;28;20032;-48
2023/09/06 06:43:54;;;;;;;0.00;0.00;;;;;;;21.75;100.00;101885.16;5067208;28;20116;-47
2023/09/06 06:46:26;;;;;;;0.00;0.00;;;;;;;22.60;100.00;101885.00;5066312;28;20029;-49
2023/09/06 06:48:52;;;;;;;0.00;0.00;;;;;;;23.81;100.00;101871.47;5066520;28;20506;-49
2023/09/06 06:51:17;;;;;;;0.00;0.00;;;;;;;24.56;100.00;101866.75;5065407;28;20059;-48
2023/09/06 06:53:42;;;;;;;0.00;0.00;;;;;;;25.38;100.00;101868.81;5066410;28;20046;-48
2023/09/06 06:56:08;;;;;;;0.00;0.00;;;;;;;26.15;100.00;101872.44;5064795;28;20479;-48
2023/09/06 06:58:33;;;;;;;0.00;0.00;;;;;;;26.80;100.00;101872.41;5067765;28;20029;-52
2023/09/06 07:01:00;;;;;;;0.00;0.00;;;;;;;27.46;100.00;101870.03;5069676;28;20527;-50
2023/09/06 07:03:26;;;;;;;0.00;0.00;;;;;;;27.97;100.00;101869.38;5070834;28;20044;-49
2023/09/06 07:05:51;;;;;;;0.00;0.00;;;;;;;27.58;100.00;101867.03;5070270;28;20036;-49
2023/09/06 07:08:17;;;;;;;0.00;0.00;;;;;;;27.99;100.00;101867.19;5063491;28;20031;-47
2023/09/06 07:10:42;;;;;;;0.00;0.00;;;;;;;28.21;100.00;101876.03;5066133;28;20024;-51
2023/09/06 07:13:07;;;;;;;0.00;0.00;;;;;;;28.29;100.00;101871.88;5048426;28;20020;-51
2023/09/06 07:15:33;;;;;;;0.00;0.00;;;;;;;28.23;100.00;101882.13;5066039;28;20104;-50
2023/09/06 07:18:01;;;;;;;0.00;0.00;;;;;;;28.58;100.00;101872.19;5066662;28;20120;-51
2023/09/06 07:20:26;;;;;;;0.00;0.00;;;;;;;28.63;100.00;101879.66;5062909;28;20028;-47
2023/09/06 07:22:52;;;;;;;0.00;0.00;;;;;;;28.98;100.00;101878.75;5064685;28;20409;-51
2023/09/06 07:25:17;;;;;;;0.00;0.00;;;;;;;29.81;100.00;101884.88;5066470;28;20032;-50
2023/09/06 07:27:43;;;;;;;0.00;0.00;;;;;;;30.41;99.60;101893.88;5066673;28;20039;-47
2023/09/06 07:30:09;;;;;;;0.00;0.00;;;;;;;30.83;98.88;101896.06;5066000;28;20530;-48
2023/09/06 07:32:34;;;;;;;0.00;0.00;;;;;;;30.93;98.15;101885.94;5065053;28;20032;-46
2023/09/06 07:35:00;;;;;;;0.00;0.00;;;;;;;30.95;93.46;101884.50;5067782;28;20321;-51
2023/09/06 07:37:25;;;;;;;0.00;0.00;;;;;;;30.75;96.87;101891.06;5067853;28;20032;-48
2023/09/06 07:39:51;;;;;;;0.00;0.00;;;;;;;31.37;94.43;101893.22;5067152;28;20040;-52
2023/09/06 07:42:17;;;;;;;0.00;0.00;;;;;;;31.88;92.93;101890.56;5067115;28;20090;-47
2023/09/06 07:44:42;;;;;;;0.00;0.00;;;;;;;31.79;92.58;101889.59;5066680;28;20028;-47
2023/09/06 07:47:07;;;;;;;0.00;0.00;;;;;;;31.67;89.34;101892.00;5066774;28;20060;-51
2023/09/06 07:49:33;;;;;;;0.00;0.00;;;;;;;31.87;91.52;101890.91;5066487;28;20138;-47
2023/09/06 07:52:04;;;;;;;0.00;0.00;;;;;;;31.57;90.88;101883.78;5067113;28;20119;-49
2023/09/06 07:54:30;;;;;;;0.00;0.00;;;;;;;32.15;90.95;101886.31;5066189;28;20032;-48
2023/09/06 07:56:55;;;;;;;0.00;0.00;;;;;;;31.64;90.08;101884.25;5067246;28;20097;-47
2023/09/06 07:59:22;;;;;;;0.00;0.00;;;;;;;32.56;88.48;101891.22;5065901;28;20130;-48
2023/09/06 08:01:47;;;;;;;0.00;0.00;;;;;;;32.49;88.93;101894.44;5065165;28;20074;-49
2023/09/06 08:04:12;;;;;;;0.00;0.00;;;;;;;32.72;90.61;101892.59;5064841;28;20087;-46
2023/09/06 08:06:39;;;;;;;0.00;0.00;;;;;;;33.23;88.28;101890.84;5065062;28;20036;-49
2023/09/06 08:09:04;;;;;;;0.00;0.00;;;;;;;32.77;86.74;101891.69;5065648;28;20051;-45
2023/09/06 08:11:30;;;;;;;0.00;0.00;;;;;;;33.04;87.75;101890.09;5066072;28;20518;-47
2023/09/06 08:13:55;;;;;;;0.00;0.00;;;;;;;33.72;83.29;101891.19;5065251;28;20356;-49
2023/09/06 08:16:20;;;;;;;0.00;0.00;;;;;;;34.53;82.81;101896.78;5065842;28;20051;-48
2023/09/06 08:18:46;;;;;;;0.00;0.00;;;;;;;34.19;81.49;101902.97;5064914;28;20534;-44
2023/09/06 08:21:12;;;;;;;0.00;0.00;;;;;;;33.79;82.71;101905.56;5065391;28;20115;-49
2023/09/06 08:23:37;;;;;;;0.00;0.00;;;;;;;33.74;82.78;101906.50;5064970;28;20032;-48
2023/09/06 08:26:03;;;;;;;0.00;0.00;;;;;;;34.09;82.72;101907.66;5065801;28;20119;-49
2023/09/06 08:28:29;;;;;;;;;;;;;;;34.19;83.50;101903.78;5064786;28;20078;-50
2023/09/06 08:30:54;;;;;;;0.00;0.00;;;;;;;34.46;81.55;101904.78;5066179;28;19916;-48
2023/09/06 08:33:19;;;;;;;0.00;0.00;;;;;;;34.18;79.70;101912.47;5066143;28;20095;-49
2023/09/06 08:35:45;;;;;;;0.00;0.00;;;;;;;33.74;82.05;101909.28;5066203;28;20131;-46
2023/09/06 08:38:10;;;;;;;0.00;0.00;;;;;;;33.17;85.64;101904.03;5065409;28;20024;-50
2023/09/06 08:40:36;;;;;;;0.00;0.00;;;;;;;33.29;83.57;101903.53;5065680;28;20032;-46
2023/09/06 08:43:03;;;;;;;0.00;0.00;;;;;;;33.74;82.69;101909.28;5047558;28;20031;-50
2023/09/06 08:45:29;;;;;;;0.00;0.00;;;;;;;33.50;83.34;101903.94;5063289;28;20024;-48
2023/09/06 08:47:55;;;;;;;0.00;0.00;;;;;;;34.07;81.50;101897.94;5064498;28;20033;-46
2023/09/06 08:50:21;;;;;;;;;;;;;;;33.97;81.46;101906.56;5065474;28;20523;-47
2023/09/06 08:52:50;;;;;;;;;;;;;;;33.93;80.22;101905.50;5065375;28;19959;-46
2023/09/06 08:55:16;;;;;;;0.00;0.00;;;;;;;34.18;80.60;101902.16;5064903;28;20897;-46
2023/09/06 08:57:41;;;;;;;0.00;0.00;;;;;;;34.46;81.77;101902.00;5064168;28;20367;-45
2023/09/06 09:00:09;;;;;;;0.00;0.00;;;;;;;33.59;82.78;101904.84;5065900;28;20024;-47
2023/09/06 09:02:40;;;;;;;0.00;0.00;;;;;;;34.39;80.88;101912.78;5065878;28;20154;-45
2023/09/06 09:05:06;;;;;;;0.00;0.00;;;;;;;34.43;77.77;101905.44;5063258;28;20066;-46
2023/09/06 09:07:31;;;;;;;0.00;0.00;;;;;;;34.92;77.49;101898.03;5065605;28;20024;-47
2023/09/06 09:10:04;;;;;;;0.00;0.00;;;;;;;35.06;78.03;101898.72;5048264;28;20036;-47
2023/09/06 09:12:30;;;;;;;0.00;0.00;;;;;;;34.57;78.75;101897.81;5066381;28;20104;-48
2023/09/06 09:14:56;;;;;;;0.00;0.00;;;;;;;35.41;77.15;101898.88;5065638;28;20487;-47
2023/09/06 09:17:23;;;;;;;0.00;0.00;;;;;;;35.06;73.80;101892.31;5065936;28;20490;-47
2023/09/06 09:19:56;;;;;;;0.00;0.00;;;;;;;35.17;74.58;101902.09;5065063;28;20033;-43
2023/09/06 09:22:30;;;;;;;0.00;0.00;;;;;;;34.09;79.03;101899.25;5066219;28;20044;-45
2023/09/06 09:24:59;;;;;;;0.00;0.00;;;;;;;34.01;76.54;101896.38;5065692;28;20120;-46
2023/09/06 09:27:28;;;;;;;0.00;0.00;;;;;;;34.49;76.10;101898.56;5065866;28;20025;-45
2023/09/06 09:29:55;;;;;;;0.00;0.00;;;;;;;34.14;78.04;101901.13;5065008;28;20037;-46
2023/09/06 09:32:20;;;;;;;0.00;0.00;;;;;;;34.26;77.94;101893.00;5065278;28;20036;-45
2023/09/06 09:34:45;;;;;;;0.00;0.00;;;;;;;34.79;76.76;101901.75;5064218;28;20059;-47
2023/09/06 09:37:12;;;;;;;0.00;0.00;;;;;;;35.11;77.15;101900.59;5064259;28;20333;-47
2023/09/06 09:39:37;;;;;;;;;;;;;;;35.31;73.81;101896.38;5062439;28;20021;-48
2023/09/06 09:42:04;;;;;;;0.00;0.00;;;;;;;35.28;76.16;101900.63;5064240;28;19954;-48
2023/09/06 09:44:30;;;;;;;0.00;0.00;;;;;;;35.65;71.89;101901.25;5063391;28;20044;-47
2023/09/06 09:46:58;;;;;;;0.00;0.00;;;;;;;35.70;73.69;101901.09;5063690;28;20111;-47
2023/09/06 09:49:24;;;;;;;0.00;0.00;;;;;;;34.92;74.52;101898.84;5064792;28;20128;-47
2023/09/06 09:51:50;;;;;;;0.00;0.00;;;;;;;33.51;78.53;101902.78;5062623;28;20571;-48
2023/09/06 09:54:17;;;;;;;0.00;0.00;;;;;;;32.95;82.39;101899.16;5064290;28;20451;-47
2023/09/06 09:56:47;;;;;;;0.00;0.00;;;;;;;32.54;83.10;101899.88;5062960;28;20059;-47
2023/09/06 09:59:14;;;;;;;0.00;0.00;;;;;;;31.60;86.50;101899.91;5047032;28;20449;-46
2023/09/06 10:01:40;;;;;;;0.00;0.00;;;;;;;31.42;86.22;101899.56;5049804;28;20028;-47
2023/09/06 10:04:06;;;;;;;0.00;0.00;;;;;;;31.12;88.28;101897.94;5047855;28;20044;-45
2023/09/06 10:06:32;;;;;;;0.00;0.00;;;;;;;30.77;89.74;101897.16;5067097;28;20024;-48
2023/09/06 10:09:00;;;;;;;0.00;0.00;;;;;;;30.28;91.51;101905.66;5068788;28;20445;-49
2023/09/06 10:11:26;;;;;;;0.00;0.00;;;;;;;29.94;94.05;101904.50;5071136;28;20036;-48
2023/09/06 10:13:52;;;;;;;0.00;0.00;;;;;;;29.77;96.91;101901.25;5071544;28;20036;-46
2023/09/06 10:16:20;;;;;;;0.00;0.00;;;;;;;29.90;98.71;101897.84;5071113;28;20362;-51
2023/09/06 10:18:47;;;;;;;0.00;0.00;;;;;;;29.49;99.47;101889.72;5068271;28;20072;-49
2023/09/06 10:21:13;;;;;;;0.00;0.00;;;;;;;29.62;99.44;101881.88;5049248;28;20051;-46
2023/09/06 10:23:42;;;;;;;0.00;0.00;;;;;;;29.71;100.00;101883.81;5067254;28;20051;-47
2023/09/06 10:26:08;;;;;;;0.00;0.00;;;;;;;29.68;98.41;101886.34;5067452;28;20040;-47
2023/09/06 10:28:34;;;;;;;0.00;0.00;;;;;;;29.61;99.45;101888.53;5067491;28;20522;-50
2023/09/06 10:31:07;;;;;;;0.00;0.00;;;;;;;29.65;100.00;101884.97;5071050;28;20032;-47
2023/09/06 10:33:41;;;;;;;0.00;0.00;;;;;;;29.74;100.00;101890.72;5069423;28;20052;-46
2023/09/06 10:36:09;;;;;;;0.00;0.00;;;;;;;29.67;100.00;101888.25;5066479;28;20131;-44
2023/09/06 10:38:53;;;;;;;0.00;0.00;;;;;;;29.33;100.00;101879.78;5065182;28;20550;-47
2023/09/06 10:41:19;;;;;;;0.40;0.00;;;;;;;29.62;100.00;101882.72;5066395;28;20055;-46
2023/09/06 10:43:57;;;;;;;0.00;0.00;;;;;;;29.60;100.00;101878.56;5066380;28;20170;-44
2023/09/06 10:46:26;;;;;;;0.00;0.00;;;;;;;29.63;100.00;101887.16;5065688;28;20182;-46
2023/09/06 10:49:19;;;;;;;0.00;0.00;;;;;;;29.67;100.00;101879.09;5045607;28;20040;-44
2023/09/06 10:51:57;;;;;;;0.00;0.00;;;;;;;29.57;100.00;101879.13;5063644;28;20135;-46
2023/09/06 10:54:43;;;;;;;0.00;0.00;;;;;;;29.64;100.00;101885.19;5064269;28;20068;-46
2023/09/06 10:57:18;;;;;;;;;;;;;;;29.70;100.00;101884.06;5063515;28;20045;-46
2023/09/06 10:59:57;;;;;;;0.00;0.00;;;;;;;29.96;97.48;101876.44;5068040;28;19951;-47
2023/09/06 11:02:23;;;;;;;0.00;0.00;;;;;;;30.29;96.64;101887.91;5062461;28;20086;-50
2023/09/06 11:04:49;;;;;;;0.00;0.00;;;;;;;30.51;96.19;101888.25;5063364;28;20131;-48
2023/09/06 11:07:14;;;;;;;0.00;0.00;;;;;;;30.72;92.69;101877.75;5064854;28;21678;-48
2023/09/06 11:09:43;;;;;;;0.00;0.00;;;;;;;31.38;90.14;101883.75;5063405;28;20585;-50
2023/09/06 11:12:11;;;;;;;0.00;0.00;;;;;;;32.07;89.60;101885.06;5064403;28;20104;-47
2023/09/06 11:14:36;;;;;;;0.00;0.00;;;;;;;32.53;87.76;101891.84;5064765;28;20047;-47
2023/09/06 11:17:01;;;;;;;0.00;0.00;;;;;;;33.31;84.09;101883.66;5064611;28;20475;-50
2023/09/06 11:19:30;;;;;;;0.00;0.00;;;;;;;33.74;84.08;101886.94;5064769;28;20616;-47
2023/09/06 11:22:09;;;;;;;0.00;0.00;;;;;;;33.86;82.99;101891.97;5063460;28;20028;-49